Terminal Aerodrome Forecast
Issued by NWS

Home | Current Version | Previous Version | Text Only | Print | Product List | Glossary On
Versions: 1 2 3 4 5 6 7 8 9 10 11 12 13 14 15 16 17 18 19 20 21 22 23 24 25 26 27 28 29 30 31 32 33 34 35 36 37 38 39 40 41 42 43 44 45 46 47 48 49 50
000
FTUS43 KLOT 200900 AAA
TAFGYY
TAF AMD
KGYY 200900Z 2009/2106 20010KT P6SM SCT200
     FM201300 21011G17KT P6SM SCT200
     FM201600 21015G24KT P6SM FEW200
     FM210300 20016G24KT P6SM SCT200 WS015/22050KT=

USA.gov is the U.S. government's official web portal to all federal, state and local government web resources and services.